Miami, Florida
Traffic Map
Current Weather Conditions
Miami, Florida
Scattered Clouds
Scattered Clouds
84°
Feels Like: 93°
Wind Chill: 84° Ceiling: Unl
Heat Index: 93° Visibility: 10mi
Dew Point: 76° Wind: 6mph
Humidity: 76% Direction: 100° (E)
Pressure: 30.05in Gusts: 0mph
Raw Report DataKMIA 260553Z 10005KT 10SM FEW025 SCT035 SCT250 29/24 A3005 RMK AO2 SLP177 OCNL LTGIC DSNT N CB DSNT N T02890244 10294 20283 56006
Traffic Incident Summary
Active as of:
Severity:
Category:
InformationThere was an issue retrieving the traffic information for this location. Please try a different location or try again shortly.
Advertisements
Track Severe Weather on mobile